createdAt,value
2023-01-27T00:01:45.443Z,3.00
2023-01-27T00:04:17.675Z,3.20
2023-01-27T00:06:48.163Z,2.50
2023-01-27T00:09:18.694Z,2.30
2023-01-27T00:12:06.774Z,2.50
2023-01-27T00:14:41.896Z,2.20
2023-01-27T00:17:11.347Z,2.30
2023-01-27T00:19:38.389Z,2.70
2023-01-27T00:22:24.339Z,2.30
2023-01-27T00:24:56.200Z,2.30
2023-01-27T00:27:36.306Z,2.30
2023-01-27T00:30:06.119Z,2.10
2023-01-27T00:32:57.038Z,2.00
2023-01-27T00:35:26.729Z,1.80
2023-01-27T00:37:56.001Z,2.10
2023-01-27T00:40:26.170Z,2.00
2023-01-27T00:42:53.252Z,1.90
2023-01-27T00:45:41.224Z,1.70
2023-01-27T00:48:08.269Z,1.90
2023-01-27T00:50:38.799Z,2.00
2023-01-27T00:53:05.840Z,1.80
2023-01-27T00:55:35.669Z,2.40
2023-01-27T00:58:05.682Z,2.70
2023-01-27T01:00:34.938Z,2.10
2023-01-27T01:03:02.066Z,2.30
2023-01-27T01:05:32.074Z,2.50
2023-01-27T01:08:01.470Z,2.50
2023-01-27T01:10:28.575Z,2.50
2023-01-27T01:13:02.917Z,2.00
2023-01-27T01:15:32.307Z,1.50
2023-01-27T01:18:05.342Z,1.70
2023-01-27T01:20:38.521Z,1.90
2023-01-27T01:23:11.930Z,2.10
2023-01-27T01:25:52.672Z,2.10
2023-01-27T01:28:22.061Z,2.50
2023-01-27T01:30:49.924Z,2.60
2023-01-27T01:33:19.519Z,2.70
2023-01-27T01:35:49.106Z,2.40
2023-01-27T01:38:16.233Z,3.00
2023-01-27T01:40:45.214Z,2.70
2023-01-27T01:43:18.777Z,2.60
2023-01-27T01:45:52.573Z,2.30
2023-01-27T01:48:50.151Z,2.00
2023-01-27T01:51:46.877Z,2.60
2023-01-27T01:54:44.140Z,2.40
2023-01-27T01:57:23.145Z,2.40
2023-01-27T02:00:07.212Z,2.10
2023-01-27T02:02:42.694Z,2.20
2023-01-27T02:05:34.407Z,2.20
2023-01-27T02:08:20.385Z,1.60
2023-01-27T02:10:48.258Z,1.40
2023-01-27T02:13:17.841Z,1.60
2023-01-27T02:15:45.092Z,1.60
2023-01-27T02:18:12.203Z,1.60
2023-01-27T02:20:48.811Z,2.10
2023-01-27T02:23:50.687Z,2.10
2023-01-27T02:26:36.275Z,2.10
2023-01-27T02:29:08.546Z,2.50
2023-01-27T02:31:36.249Z,2.30
2023-01-27T02:34:09.700Z,2.00
2023-01-27T02:36:53.952Z,2.10
2023-01-27T02:39:27.729Z,2.50
2023-01-27T02:41:59.109Z,2.20
2023-01-27T02:44:28.784Z,1.80
2023-01-27T02:46:55.918Z,2.00
2023-01-27T02:49:23.060Z,2.30
2023-01-27T02:51:52.929Z,2.40
2023-01-27T02:54:21.805Z,2.40
2023-01-27T02:56:48.956Z,2.00
2023-01-27T02:59:16.064Z,2.10
2023-01-27T03:01:43.328Z,2.20
2023-01-27T03:04:12.081Z,2.40
2023-01-27T03:06:44.948Z,2.10
2023-01-27T03:09:17.476Z,2.20
2023-01-27T03:12:05.887Z,2.50
2023-01-27T03:14:53.250Z,2.80
2023-01-27T03:17:39.151Z,2.60
2023-01-27T03:20:06.938Z,2.70
2023-01-27T03:22:34.085Z,2.40
2023-01-27T03:25:03.407Z,2.80
2023-01-27T03:27:33.876Z,2.90
2023-01-27T03:30:01.114Z,2.90
2023-01-27T03:32:31.047Z,2.90
2023-01-27T03:34:58.754Z,2.50
2023-01-27T03:37:54.173Z,2.60
2023-01-27T03:40:43.228Z,2.40
2023-01-27T03:43:29.007Z,2.30
2023-01-27T03:46:19.915Z,2.10
2023-01-27T03:49:07.955Z,2.40
2023-01-27T03:51:35.229Z,2.30
2023-01-27T03:54:05.494Z,2.50
2023-01-27T03:56:32.649Z,2.40
2023-01-27T03:58:59.746Z,2.80
2023-01-27T04:01:27.116Z,1.90
2023-01-27T04:04:13.359Z,1.90
2023-01-27T04:07:03.751Z,2.40
2023-01-27T04:09:36.116Z,2.30
2023-01-27T04:12:13.541Z,2.60
2023-01-27T04:14:43.498Z,2.70
2023-01-27T04:17:16.724Z,2.10
2023-01-27T04:19:43.495Z,2.00
2023-01-27T04:22:12.398Z,3.00
2023-01-27T04:24:39.669Z,2.90
2023-01-27T04:27:13.109Z,2.60
2023-01-27T04:29:41.844Z,2.90
2023-01-27T04:32:11.195Z,2.90
2023-01-27T04:34:38.907Z,2.40
2023-01-27T04:37:07.894Z,2.30
2023-01-27T04:39:35.390Z,2.40
2023-01-27T04:42:02.387Z,2.20
2023-01-27T04:44:29.153Z,2.30
2023-01-27T04:46:55.937Z,2.20
2023-01-27T04:49:22.837Z,2.00
2023-01-27T04:51:49.813Z,1.70
2023-01-27T04:54:16.919Z,2.30
2023-01-27T04:56:57.040Z,2.00
2023-01-27T04:59:24.054Z,2.00
2023-01-27T05:01:52.095Z,1.70
2023-01-27T05:04:18.963Z,1.50
2023-01-27T05:06:45.756Z,1.60
2023-01-27T05:09:12.717Z,2.00
2023-01-27T05:11:39.574Z,2.00
2023-01-27T05:14:06.396Z,1.70
2023-01-27T05:16:33.267Z,1.80
2023-01-27T05:19:00.053Z,1.60
2023-01-27T05:21:28.422Z,2.20
2023-01-27T05:23:55.299Z,2.20
2023-01-27T05:26:27.660Z,2.20
2023-01-27T05:28:57.636Z,2.10
2023-01-27T05:31:27.973Z,2.50
2023-01-27T05:33:56.233Z,2.60
2023-01-27T05:36:24.737Z,2.70
2023-01-27T05:38:52.447Z,2.30
2023-01-27T05:41:20.386Z,2.30
2023-01-27T05:43:52.133Z,1.80
2023-01-27T05:46:24.856Z,2.50
2023-01-27T05:48:55.685Z,2.10
2023-01-27T05:51:25.163Z,2.80
2023-01-27T05:53:52.708Z,2.40
2023-01-27T05:56:20.111Z,2.80
2023-01-27T05:58:47.103Z,2.80
2023-01-27T06:01:21.209Z,2.80
2023-01-27T06:03:48.800Z,2.70
2023-01-27T06:06:18.644Z,2.80
2023-01-27T06:08:47.129Z,2.90
2023-01-27T06:11:15.476Z,2.40
2023-01-27T06:13:42.249Z,2.60
2023-01-27T06:16:12.793Z,2.60
2023-01-27T06:18:40.703Z,2.80
2023-01-27T06:21:10.962Z,2.20
2023-01-27T06:23:38.999Z,2.60
2023-01-27T06:26:16.578Z,2.90
2023-01-27T06:28:43.889Z,2.60
2023-01-27T06:31:14.679Z,2.70
2023-01-27T06:33:42.167Z,2.70
2023-01-27T06:36:12.966Z,2.60
2023-01-27T06:38:40.208Z,2.40
2023-01-27T06:41:07.224Z,1.90
2023-01-27T06:43:34.545Z,1.90
2023-01-27T06:46:04.330Z,2.30
2023-01-27T06:48:32.902Z,2.60
2023-01-27T06:50:59.845Z,2.00
2023-01-27T06:53:26.757Z,2.10
2023-01-27T06:56:00.838Z,2.50
2023-01-27T06:58:28.733Z,2.30
2023-01-27T07:00:56.220Z,2.30
2023-01-27T07:03:23.358Z,2.80
2023-01-27T07:05:50.354Z,2.70
2023-01-27T07:08:17.186Z,2.90
2023-01-27T07:10:44.004Z,1.90
2023-01-27T07:13:13.951Z,1.90
2023-01-27T07:15:41.225Z,2.00
2023-01-27T07:18:08.232Z,2.30
2023-01-27T07:20:35.153Z,2.10
2023-01-27T07:23:04.903Z,2.10
2023-01-27T07:25:34.223Z,2.50
2023-01-27T07:28:02.966Z,2.50
2023-01-27T07:30:30.670Z,2.30
2023-01-27T07:33:04.936Z,2.50
2023-01-27T07:35:31.842Z,2.20
2023-01-27T07:37:58.823Z,2.30
2023-01-27T07:40:25.655Z,2.80
2023-01-27T07:42:52.446Z,2.90
2023-01-27T07:45:19.292Z,2.80
2023-01-27T07:47:46.033Z,2.70
2023-01-27T07:50:13.076Z,2.30
2023-01-27T07:52:39.953Z,2.40
2023-01-27T07:55:08.098Z,2.60
2023-01-27T07:57:35.008Z,2.60
2023-01-27T08:00:02.152Z,2.60
2023-01-27T08:02:28.988Z,2.30
2023-01-27T08:04:55.754Z,2.70
2023-01-27T08:07:22.985Z,2.60
2023-01-27T08:09:49.761Z,2.60
2023-01-27T08:12:16.716Z,2.50
2023-01-27T08:14:43.463Z,2.60
2023-01-27T08:17:10.248Z,2.70
2023-01-27T08:19:37.061Z,2.50
2023-01-27T08:22:03.958Z,3.10
2023-01-27T08:24:30.817Z,3.60
2023-01-27T08:26:57.630Z,3.60
2023-01-27T08:29:24.803Z,3.20
2023-01-27T08:31:51.606Z,3.50
2023-01-27T08:34:18.480Z,3.20
2023-01-27T08:36:45.258Z,3.00
2023-01-27T08:39:12.086Z,3.40
2023-01-27T08:41:39.105Z,3.30
2023-01-27T08:44:06.991Z,3.10
2023-01-27T08:46:34.133Z,2.70
2023-01-27T08:49:01.004Z,2.70
2023-01-27T08:51:28.304Z,3.10
2023-01-27T08:53:55.138Z,3.10
2023-01-27T08:56:22.141Z,2.80
2023-01-27T08:58:49.230Z,2.60
2023-01-27T09:01:16.722Z,3.00
2023-01-27T09:03:43.514Z,2.80
2023-01-27T09:06:12.703Z,3.20
2023-01-27T09:08:40.949Z,3.00
2023-01-27T09:11:18.099Z,3.20
2023-01-27T09:13:44.840Z,2.60
2023-01-27T09:16:11.633Z,2.60
2023-01-27T09:18:38.418Z,2.90
2023-01-27T09:21:06.295Z,3.30
2023-01-27T09:23:34.358Z,3.60
2023-01-27T09:26:01.173Z,3.00
2023-01-27T09:28:28.051Z,3.50
2023-01-27T09:30:58.604Z,3.50
2023-01-27T09:33:26.572Z,3.10
2023-01-27T09:36:17.310Z,2.80
2023-01-27T09:38:52.283Z,2.30
2023-01-27T09:41:42.951Z,3.10
2023-01-27T09:44:49.292Z,2.90
2023-01-27T09:47:57.152Z,2.40
2023-01-27T09:50:45.228Z,3.00
2023-01-27T09:53:42.187Z,3.20
2023-01-27T09:56:15.443Z,3.30
2023-01-27T09:59:32.936Z,3.30
2023-01-27T10:02:31.751Z,3.00
2023-01-27T10:05:31.785Z,3.20
2023-01-27T10:08:27.622Z,3.10
2023-01-27T10:11:36.895Z,3.10
2023-01-27T10:14:26.273Z,3.30
2023-01-27T10:17:32.953Z,3.10
2023-01-27T10:23:11.685Z,3.30
2023-01-27T10:26:09.407Z,2.80
2023-01-27T10:28:38.348Z,2.80
2023-01-27T10:31:27.252Z,2.80
2023-01-27T10:33:58.255Z,2.70
2023-01-27T10:36:38.752Z,2.80
2023-01-27T10:39:46.907Z,2.70
2023-01-27T10:42:35.788Z,2.30
2023-01-27T10:45:19.004Z,2.40
2023-01-27T10:48:15.805Z,2.40
2023-01-27T10:50:52.784Z,2.80
2023-01-27T10:53:40.148Z,3.00
2023-01-27T10:56:17.581Z,2.70
2023-01-27T10:59:28.242Z,3.30
2023-01-27T11:02:18.182Z,3.10
2023-01-27T11:04:54.950Z,3.10
2023-01-27T11:07:23.566Z,3.30
2023-01-27T11:09:58.278Z,2.90
2023-01-27T11:12:37.584Z,2.70
2023-01-27T11:15:36.154Z,3.50
2023-01-27T11:18:20.074Z,2.80
2023-01-27T11:20:54.467Z,2.90
2023-01-27T11:23:48.981Z,2.90
2023-01-27T11:26:36.775Z,2.70
2023-01-27T11:29:46.163Z,3.10
2023-01-27T11:32:43.034Z,2.60
2023-01-27T11:35:14.119Z,2.60
2023-01-27T11:37:49.481Z,2.50
2023-01-27T11:40:32.875Z,2.40
2023-01-27T11:43:00.974Z,2.10
2023-01-27T11:45:32.411Z,3.00
2023-01-27T11:48:00.449Z,3.00
2023-01-27T11:50:34.275Z,2.80
2023-01-27T11:53:12.099Z,3.20
2023-01-27T11:55:46.114Z,2.90
2023-01-27T11:58:26.642Z,3.40
2023-01-27T12:01:01.858Z,3.30
2023-01-27T12:04:03.046Z,3.60
2023-01-27T12:06:52.314Z,3.30
2023-01-27T12:09:41.781Z,3.00
2023-01-27T12:12:25.148Z,3.10
2023-01-27T12:14:54.740Z,3.20
2023-01-27T12:17:54.806Z,3.30
2023-01-27T12:20:21.472Z,3.10
2023-01-27T12:22:53.935Z,3.20
2023-01-27T12:25:28.166Z,3.20
2023-01-27T12:28:04.252Z,3.40
2023-01-27T12:30:34.982Z,3.30
2023-01-27T12:33:29.632Z,3.60
2023-01-27T12:36:01.774Z,2.90
2023-01-27T12:38:35.644Z,3.30
2023-01-27T12:41:05.818Z,3.80
2023-01-27T12:43:32.990Z,3.20
2023-01-27T12:46:05.005Z,3.00
2023-01-27T12:48:36.299Z,3.20
2023-01-27T12:51:24.586Z,3.50
2023-01-27T12:54:32.354Z,3.30
2023-01-27T12:57:06.020Z,3.50
2023-01-27T12:59:34.587Z,3.30
2023-01-27T13:02:22.786Z,3.80
2023-01-27T13:04:57.011Z,3.60
2023-01-27T13:07:32.051Z,3.30
2023-01-27T13:10:04.080Z,3.10
2023-01-27T13:12:54.987Z,2.70
2023-01-27T13:15:24.916Z,3.50
2023-01-27T13:17:54.874Z,4.00
2023-01-27T13:20:39.797Z,3.50
2023-01-27T13:23:15.987Z,3.80
2023-01-27T13:26:13.763Z,3.70
2023-01-27T13:29:09.163Z,3.30
2023-01-27T13:31:57.052Z,2.90
2023-01-27T13:34:45.068Z,3.30
2023-01-27T13:37:32.272Z,3.30
2023-01-27T13:40:44.692Z,3.10
2023-01-27T13:43:33.684Z,2.80
2023-01-27T13:46:19.747Z,3.30
2023-01-27T13:48:55.791Z,3.60
2023-01-27T13:51:25.608Z,3.50
2023-01-27T13:54:02.624Z,3.30
2023-01-27T13:57:26.834Z,3.30
2023-01-27T14:00:43.372Z,3.20
2023-01-27T14:03:37.887Z,3.20
2023-01-27T14:06:41.634Z,3.20
2023-01-27T14:10:10.567Z,3.70
2023-01-27T14:13:13.888Z,4.00
2023-01-27T14:16:02.466Z,3.20
2023-01-27T14:18:41.169Z,3.30
2023-01-27T14:21:39.795Z,3.10
2023-01-27T14:24:40.349Z,3.70
2023-01-27T14:27:40.026Z,3.70
2023-01-27T14:30:27.799Z,3.50
2023-01-27T14:33:51.491Z,3.50
2023-01-27T14:36:31.185Z,3.60
2023-01-27T14:39:22.166Z,3.30
2023-01-27T14:41:48.812Z,3.40
2023-01-27T14:44:21.626Z,3.70
2023-01-27T14:47:17.785Z,3.40
2023-01-27T14:50:21.065Z,3.50
2023-01-27T14:53:25.081Z,3.60
2023-01-27T14:56:12.873Z,3.30
2023-01-27T14:58:46.731Z,3.30
2023-01-27T15:01:39.452Z,4.10
2023-01-27T15:04:32.468Z,3.50
2023-01-27T15:07:14.211Z,3.90
2023-01-27T15:10:19.423Z,3.70
2023-01-27T15:13:42.045Z,3.30
2023-01-27T15:16:37.652Z,3.40
2023-01-27T15:19:12.731Z,3.50
2023-01-27T15:22:10.556Z,3.60
2023-01-27T15:25:22.151Z,3.00
2023-01-27T15:27:53.236Z,3.50
2023-01-27T15:30:37.295Z,3.90
2023-01-27T15:33:47.881Z,3.50
2023-01-27T15:36:32.576Z,3.60
2023-01-27T15:39:09.512Z,3.40
2023-01-27T15:42:10.000Z,3.10
2023-01-27T15:45:01.595Z,3.30
2023-01-27T15:47:35.279Z,3.10
2023-01-27T15:50:13.194Z,3.20
2023-01-27T15:52:46.461Z,3.40
2023-01-27T15:55:28.090Z,3.30
2023-01-27T15:58:07.430Z,3.10
2023-01-27T16:00:42.222Z,3.10
2023-01-27T16:03:28.952Z,3.30
2023-01-27T16:06:03.320Z,3.00
2023-01-27T16:08:57.401Z,2.90
2023-01-27T16:11:29.919Z,2.90
2023-01-27T16:14:11.789Z,2.80
2023-01-27T16:17:18.431Z,3.40
2023-01-27T16:20:20.869Z,2.80
2023-01-27T16:23:00.219Z,2.90
2023-01-27T16:25:39.591Z,3.00
2023-01-27T16:28:22.757Z,2.40
2023-01-27T16:31:03.221Z,3.20
2023-01-27T16:33:38.578Z,3.60
2023-01-27T16:36:20.991Z,3.20
2023-01-27T16:38:49.498Z,3.30
2023-01-27T16:41:26.856Z,2.90
2023-01-27T16:44:36.017Z,2.90
2023-01-27T16:47:16.717Z,3.10
2023-01-27T16:49:44.669Z,3.60
2023-01-27T16:52:40.717Z,3.60
2023-01-27T16:55:23.849Z,3.20
2023-01-27T16:57:52.765Z,3.10
2023-01-27T17:00:24.835Z,3.40
2023-01-27T17:02:53.858Z,3.90
2023-01-27T17:05:21.424Z,3.20
2023-01-27T17:08:18.399Z,3.40
2023-01-27T17:10:56.116Z,3.30
2023-01-27T17:13:36.852Z,3.40
2023-01-27T17:16:07.455Z,3.50
2023-01-27T17:18:51.803Z,3.20
2023-01-27T17:21:39.109Z,3.80
2023-01-27T17:24:18.339Z,3.40
2023-01-27T17:26:49.441Z,3.40
2023-01-27T17:29:21.538Z,2.90
2023-01-27T17:31:49.267Z,3.30
2023-01-27T17:34:19.867Z,3.30
2023-01-27T17:37:24.407Z,3.10
2023-01-27T17:40:14.472Z,3.40
2023-01-27T17:42:42.769Z,3.30
2023-01-27T17:45:23.425Z,2.80
2023-01-27T17:47:50.937Z,3.10
2023-01-27T17:50:24.881Z,2.70
2023-01-27T17:52:54.098Z,2.70
2023-01-27T17:55:24.236Z,3.00
2023-01-27T17:58:01.050Z,3.20
2023-01-27T18:00:33.567Z,3.70
2023-01-27T18:03:04.219Z,3.40
2023-01-27T18:05:33.779Z,3.10
2023-01-27T18:08:03.727Z,3.20
2023-01-27T18:10:33.179Z,3.30
2023-01-27T18:13:19.515Z,3.40
2023-01-27T18:15:51.473Z,3.30
2023-01-27T18:18:33.761Z,3.40
2023-01-27T18:21:09.483Z,3.40
2023-01-27T18:23:57.998Z,3.60
2023-01-27T18:26:40.795Z,3.30
2023-01-27T18:29:19.939Z,2.90
2023-01-27T18:32:19.567Z,3.90
2023-01-27T18:35:31.841Z,3.30
2023-01-27T18:38:19.814Z,3.20
2023-01-27T18:40:47.439Z,3.40
2023-01-27T18:43:14.241Z,3.40
2023-01-27T18:45:43.193Z,4.30
2023-01-27T18:48:17.521Z,3.50
2023-01-27T18:50:46.955Z,3.60
2023-01-27T18:53:19.496Z,3.20
2023-01-27T18:55:46.707Z,3.30
2023-01-27T18:58:13.585Z,3.30
2023-01-27T19:00:48.350Z,3.30
2023-01-27T19:03:19.335Z,3.20
2023-01-27T19:05:47.618Z,3.60
2023-01-27T19:08:20.906Z,4.10
2023-01-27T19:10:49.098Z,3.80
2023-01-27T19:13:16.769Z,4.00
2023-01-27T19:15:53.766Z,4.00
2023-01-27T19:18:34.377Z,4.00
2023-01-27T19:21:02.202Z,4.00
2023-01-27T19:23:29.416Z,3.80
2023-01-27T19:26:02.046Z,3.30
2023-01-27T19:28:51.486Z,3.80
2023-01-27T19:31:18.522Z,3.70
2023-01-27T19:33:47.356Z,3.10
2023-01-27T19:36:23.275Z,3.60
2023-01-27T19:39:06.413Z,3.50
2023-01-27T19:41:34.200Z,3.50
2023-01-27T19:44:00.971Z,3.90
2023-01-27T19:46:27.830Z,3.40
2023-01-27T19:48:54.634Z,3.70
2023-01-27T19:51:21.460Z,3.60
2023-01-27T19:53:48.436Z,3.30
2023-01-27T19:56:18.286Z,3.60
2023-01-27T19:58:51.258Z,3.80
2023-01-27T20:01:25.536Z,3.80
2023-01-27T20:03:53.963Z,3.10
2023-01-27T20:06:30.642Z,3.30
2023-01-27T20:08:59.779Z,3.80
2023-01-27T20:11:40.410Z,3.30
2023-01-27T20:14:13.849Z,2.80
2023-01-27T20:16:41.946Z,3.60
2023-01-27T20:19:08.944Z,3.80
2023-01-27T20:21:35.806Z,3.60
2023-01-27T20:24:02.825Z,3.30
2023-01-27T20:26:31.221Z,3.20
2023-01-27T20:28:58.532Z,3.50
2023-01-27T20:31:25.666Z,3.60
2023-01-27T20:33:52.877Z,3.90
2023-01-27T20:36:22.784Z,3.20
2023-01-27T20:38:50.534Z,3.30
2023-01-27T20:41:21.246Z,3.70
2023-01-27T20:43:49.063Z,3.10
2023-01-27T20:46:17.895Z,3.20
2023-01-27T20:48:44.977Z,2.80
2023-01-27T20:51:15.693Z,2.70
2023-01-27T20:53:47.718Z,3.00
2023-01-27T20:56:23.136Z,3.30
2023-01-27T20:58:50.815Z,3.40
2023-01-27T21:01:20.757Z,3.70
2023-01-27T21:03:48.469Z,3.80
2023-01-27T21:06:17.793Z,3.90
2023-01-27T21:08:44.721Z,4.30
2023-01-27T21:11:13.015Z,3.90
2023-01-27T21:13:40.164Z,3.90
2023-01-27T21:16:07.332Z,4.00
2023-01-27T21:18:36.509Z,3.30
2023-01-27T21:21:04.490Z,3.30
2023-01-27T21:23:33.274Z,3.00
2023-01-27T21:26:11.583Z,3.30
2023-01-27T21:28:38.344Z,3.50
2023-01-27T21:31:11.231Z,3.70
2023-01-27T21:33:39.419Z,3.50
2023-01-27T21:36:10.492Z,3.70
2023-01-27T21:38:39.028Z,3.70
2023-01-27T21:41:37.625Z,3.70
2023-01-27T21:44:24.470Z,3.90
2023-01-27T21:46:51.554Z,4.10
2023-01-27T21:49:18.364Z,3.50
2023-01-27T21:51:45.147Z,3.70
2023-01-27T21:54:12.055Z,3.60
2023-01-27T21:56:38.873Z,3.50
2023-01-27T21:59:05.636Z,3.70
2023-01-27T22:01:33.512Z,3.80
2023-01-27T22:04:00.516Z,3.80
2023-01-27T22:06:27.373Z,3.90
2023-01-27T22:08:54.132Z,3.50
2023-01-27T22:11:20.910Z,3.60
2023-01-27T22:13:47.769Z,3.80
2023-01-27T22:16:16.177Z,3.90
2023-01-27T22:18:43.385Z,3.90
2023-01-27T22:21:10.665Z,3.90
2023-01-27T22:23:37.554Z,3.60
2023-01-27T22:26:09.018Z,3.70
2023-01-27T22:28:35.696Z,3.60
2023-01-27T22:31:02.520Z,3.80
2023-01-27T22:33:29.489Z,3.10
2023-01-27T22:36:02.054Z,3.50
2023-01-27T22:38:28.824Z,3.80
2023-01-27T22:40:57.675Z,3.60
2023-01-27T22:43:24.664Z,3.30
2023-01-27T22:45:51.428Z,3.70
2023-01-27T22:48:18.232Z,3.80
2023-01-27T22:50:45.165Z,3.50
2023-01-27T22:53:12.064Z,3.90
2023-01-27T22:55:38.822Z,3.60
2023-01-27T22:58:05.643Z,3.90
2023-01-27T23:00:32.388Z,4.00
2023-01-27T23:02:59.159Z,3.60
2023-01-27T23:05:25.937Z,3.40
2023-01-27T23:07:52.853Z,3.80
2023-01-27T23:10:19.683Z,3.80
2023-01-27T23:12:46.528Z,3.70
2023-01-27T23:15:13.704Z,3.30
2023-01-27T23:17:40.796Z,3.60
2023-01-27T23:20:08.657Z,3.70
2023-01-27T23:22:35.442Z,3.20
2023-01-27T23:25:02.271Z,3.50
2023-01-27T23:27:29.090Z,3.70
2023-01-27T23:29:55.863Z,3.80
2023-01-27T23:32:22.674Z,4.20
2023-01-27T23:34:50.311Z,4.10
2023-01-27T23:37:17.401Z,3.80
2023-01-27T23:39:48.464Z,4.00
2023-01-27T23:42:16.893Z,3.90
2023-01-27T23:44:43.700Z,4.20
2023-01-27T23:47:11.808Z,4.20
2023-01-27T23:49:38.638Z,4.20
2023-01-27T23:52:05.677Z,4.00
2023-01-27T23:54:32.709Z,3.90
2023-01-27T23:56:59.765Z,4.20
2023-01-27T23:59:26.617Z,4.30
